Osgood, Ohio
Current Conditions -  °F | °C
As of 5:55 PM on Wednesday 22 Oct 2014 (Local Time) from KVES Reporting Station
Overcast Overcast  
Wind Chill: 44°   Ceiling: 2200
Heat Index: 46°   Visibility: 10mi
Dew Point: 43°   Wind: 6mph
Humidity: 87%   Direction: 50°NE
Pressure: 30.28"   Gusts: NA
Location:  40.34°N, 84.5°W
Report Text: KVES 222155Z AUTO 05005KT 10SM OVC022 08/06 A3028 RMK AO2
Loading
Personal Weather Stations






























Interactive Weather Map
Tropical Storm Tracking
New forecast layout! Learn more

10-Day Weather Forecast

Advertisements
Track Severe Weather on mobile